sensor_id;sensor_type;location;lat;lon;timestamp;P1;durP1;ratioP1;P2;durP2;ratioP2
9254;SDS011;4663;49.120;9.730;2023-04-19T00:01:13;60.13;;;56.47;;
9254;SDS011;4663;49.120;9.730;2023-04-19T00:03:39;55.67;;;52.07;;
9254;SDS011;4663;49.120;9.730;2023-04-19T00:06:04;50.40;;;47.23;;
9254;SDS011;4663;49.120;9.730;2023-04-19T00:08:32;52.50;;;49.20;;
9254;SDS011;4663;49.120;9.730;2023-04-19T00:10:57;51.13;;;48.03;;
9254;SDS011;4663;49.120;9.730;2023-04-19T00:13:23;55.23;;;51.67;;
9254;SDS011;4663;49.120;9.730;2023-04-19T00:15:48;52.53;;;49.10;;
9254;SDS011;4663;49.120;9.730;2023-04-19T00:18:13;52.50;;;49.13;;
9254;SDS011;4663;49.120;9.730;2023-04-19T00:20:39;51.60;;;48.23;;
9254;SDS011;4663;49.120;9.730;2023-04-19T00:23:04;53.60;;;50.13;;
9254;SDS011;4663;49.120;9.730;2023-04-19T00:25:29;52.97;;;49.73;;
9254;SDS011;4663;49.120;9.730;2023-04-19T00:27:56;52.63;;;49.10;;
9254;SDS011;4663;49.120;9.730;2023-04-19T00:30:21;51.40;;;48.17;;
9254;SDS011;4663;49.120;9.730;2023-04-19T00:32:46;54.10;;;50.80;;
9254;SDS011;4663;49.120;9.730;2023-04-19T00:35:12;48.67;;;45.57;;
9254;SDS011;4663;49.120;9.730;2023-04-19T00:37:38;52.83;;;49.43;;
9254;SDS011;4663;49.120;9.730;2023-04-19T00:40:04;51.03;;;47.73;;
9254;SDS011;4663;49.120;9.730;2023-04-19T00:42:30;51.90;;;48.23;;
9254;SDS011;4663;49.120;9.730;2023-04-19T00:44:55;54.90;;;51.43;;
9254;SDS011;4663;49.120;9.730;2023-04-19T00:47:20;53.20;;;49.90;;
9254;SDS011;4663;49.120;9.730;2023-04-19T00:49:46;56.40;;;52.93;;
9254;SDS011;4663;49.120;9.730;2023-04-19T00:52:11;50.60;;;47.43;;
9254;SDS011;4663;49.120;9.730;2023-04-19T00:54:37;52.83;;;49.57;;
9254;SDS011;4663;49.120;9.730;2023-04-19T00:57:05;55.40;;;51.87;;
9254;SDS011;4663;49.120;9.730;2023-04-19T00:59:30;52.53;;;49.27;;
9254;SDS011;4663;49.120;9.730;2023-04-19T01:01:56;50.80;;;47.47;;
9254;SDS011;4663;49.120;9.730;2023-04-19T01:04:22;51.67;;;47.83;;
9254;SDS011;4663;49.120;9.730;2023-04-19T01:06:49;51.03;;;47.87;;
9254;SDS011;4663;49.120;9.730;2023-04-19T01:09:15;55.17;;;51.80;;
9254;SDS011;4663;49.120;9.730;2023-04-19T01:11:40;52.33;;;49.10;;
9254;SDS011;4663;49.120;9.730;2023-04-19T01:14:06;52.07;;;48.77;;
9254;SDS011;4663;49.120;9.730;2023-04-19T01:16:31;49.60;;;46.30;;
9254;SDS011;4663;49.120;9.730;2023-04-19T01:18:57;54.70;;;51.27;;
9254;SDS011;4663;49.120;9.730;2023-04-19T01:21:22;55.70;;;52.27;;
9254;SDS011;4663;49.120;9.730;2023-04-19T01:23:48;51.30;;;48.13;;
9254;SDS011;4663;49.120;9.730;2023-04-19T01:26:13;52.63;;;49.40;;
9254;SDS011;4663;49.120;9.730;2023-04-19T01:28:39;51.53;;;48.37;;
9254;SDS011;4663;49.120;9.730;2023-04-19T01:31:04;48.83;;;45.67;;
9254;SDS011;4663;49.120;9.730;2023-04-19T01:33:30;49.60;;;46.47;;
9254;SDS011;4663;49.120;9.730;2023-04-19T01:35:55;48.23;;;45.27;;
9254;SDS011;4663;49.120;9.730;2023-04-19T01:38:20;52.07;;;48.90;;
9254;SDS011;4663;49.120;9.730;2023-04-19T01:40:46;51.23;;;48.07;;
9254;SDS011;4663;49.120;9.730;2023-04-19T01:43:12;52.07;;;48.83;;
9254;SDS011;4663;49.120;9.730;2023-04-19T01:45:38;54.47;;;50.97;;
9254;SDS011;4663;49.120;9.730;2023-04-19T01:48:04;52.77;;;49.33;;
9254;SDS011;4663;49.120;9.730;2023-04-19T01:50:30;54.67;;;51.33;;
9254;SDS011;4663;49.120;9.730;2023-04-19T01:52:56;55.67;;;51.87;;
9254;SDS011;4663;49.120;9.730;2023-04-19T01:55:21;53.10;;;49.73;;
9254;SDS011;4663;49.120;9.730;2023-04-19T01:57:47;54.30;;;51.07;;
9254;SDS011;4663;49.120;9.730;2023-04-19T02:00:12;51.50;;;48.37;;
9254;SDS011;4663;49.120;9.730;2023-04-19T02:02:39;52.50;;;49.37;;
9254;SDS011;4663;49.120;9.730;2023-04-19T02:05:05;52.97;;;49.73;;
9254;SDS011;4663;49.120;9.730;2023-04-19T02:07:31;54.87;;;51.53;;
9254;SDS011;4663;49.120;9.730;2023-04-19T02:09:56;55.03;;;51.73;;
9254;SDS011;4663;49.120;9.730;2023-04-19T02:12:23;52.30;;;49.10;;
9254;SDS011;4663;49.120;9.730;2023-04-19T02:14:52;52.67;;;49.40;;
9254;SDS011;4663;49.120;9.730;2023-04-19T02:17:17;51.20;;;48.03;;
9254;SDS011;4663;49.120;9.730;2023-04-19T02:19:43;51.60;;;48.43;;
9254;SDS011;4663;49.120;9.730;2023-04-19T02:22:08;48.90;;;45.87;;
9254;SDS011;4663;49.120;9.730;2023-04-19T02:24:34;51.27;;;48.17;;
9254;SDS011;4663;49.120;9.730;2023-04-19T02:26:59;49.37;;;46.10;;
9254;SDS011;4663;49.120;9.730;2023-04-19T02:29:25;49.70;;;46.57;;
9254;SDS011;4663;49.120;9.730;2023-04-19T02:31:51;53.33;;;50.07;;
9254;SDS011;4663;49.120;9.730;2023-04-19T02:34:17;51.80;;;48.60;;
9254;SDS011;4663;49.120;9.730;2023-04-19T02:36:42;53.50;;;50.13;;
9254;SDS011;4663;49.120;9.730;2023-04-19T02:39:07;50.77;;;47.67;;
9254;SDS011;4663;49.120;9.730;2023-04-19T02:41:33;47.87;;;44.90;;
9254;SDS011;4663;49.120;9.730;2023-04-19T02:43:58;46.80;;;43.77;;
9254;SDS011;4663;49.120;9.730;2023-04-19T02:46:23;47.87;;;44.77;;
9254;SDS011;4663;49.120;9.730;2023-04-19T02:48:49;47.83;;;44.87;;
9254;SDS011;4663;49.120;9.730;2023-04-19T02:51:15;45.83;;;42.90;;
9254;SDS011;4663;49.120;9.730;2023-04-19T02:53:41;41.50;;;38.87;;
9254;SDS011;4663;49.120;9.730;2023-04-19T02:56:07;39.87;;;37.20;;
9254;SDS011;4663;49.120;9.730;2023-04-19T02:58:32;41.00;;;38.30;;
9254;SDS011;4663;49.120;9.730;2023-04-19T03:00:58;42.80;;;40.03;;
9254;SDS011;4663;49.120;9.730;2023-04-19T03:03:23;45.90;;;42.87;;
9254;SDS011;4663;49.120;9.730;2023-04-19T03:05:48;46.90;;;44.00;;
9254;SDS011;4663;49.120;9.730;2023-04-19T03:08:14;46.53;;;43.73;;
9254;SDS011;4663;49.120;9.730;2023-04-19T03:10:39;47.70;;;44.80;;
9254;SDS011;4663;49.120;9.730;2023-04-19T03:13:05;45.37;;;42.47;;
9254;SDS011;4663;49.120;9.730;2023-04-19T03:15:30;45.13;;;42.13;;
9254;SDS011;4663;49.120;9.730;2023-04-19T03:17:55;42.30;;;39.60;;
9254;SDS011;4663;49.120;9.730;2023-04-19T03:20:21;44.53;;;41.67;;
9254;SDS011;4663;49.120;9.730;2023-04-19T03:22:46;41.57;;;38.80;;
9254;SDS011;4663;49.120;9.730;2023-04-19T03:25:12;39.03;;;36.40;;
9254;SDS011;4663;49.120;9.730;2023-04-19T03:27:37;38.97;;;36.43;;
9254;SDS011;4663;49.120;9.730;2023-04-19T03:30:03;37.00;;;34.60;;
9254;SDS011;4663;49.120;9.730;2023-04-19T03:32:30;36.23;;;33.77;;
9254;SDS011;4663;49.120;9.730;2023-04-19T03:34:55;34.20;;;31.97;;
9254;SDS011;4663;49.120;9.730;2023-04-19T03:37:21;36.67;;;34.23;;
9254;SDS011;4663;49.120;9.730;2023-04-19T03:39:46;34.20;;;31.73;;
9254;SDS011;4663;49.120;9.730;2023-04-19T03:42:12;34.00;;;31.23;;
9254;SDS011;4663;49.120;9.730;2023-04-19T03:44:37;33.77;;;31.43;;
9254;SDS011;4663;49.120;9.730;2023-04-19T03:47:02;34.13;;;31.47;;
9254;SDS011;4663;49.120;9.730;2023-04-19T03:49:28;34.80;;;32.37;;
9254;SDS011;4663;49.120;9.730;2023-04-19T03:51:53;35.67;;;33.20;;
9254;SDS011;4663;49.120;9.730;2023-04-19T03:54:19;36.50;;;33.80;;
9254;SDS011;4663;49.120;9.730;2023-04-19T03:56:44;39.10;;;36.50;;
9254;SDS011;4663;49.120;9.730;2023-04-19T03:59:10;37.93;;;35.47;;
9254;SDS011;4663;49.120;9.730;2023-04-19T04:01:35;40.13;;;37.40;;
9254;SDS011;4663;49.120;9.730;2023-04-19T04:04:05;39.63;;;37.10;;
9254;SDS011;4663;49.120;9.730;2023-04-19T04:06:34;36.87;;;34.50;;
9254;SDS011;4663;49.120;9.730;2023-04-19T04:08:59;37.67;;;34.87;;
9254;SDS011;4663;49.120;9.730;2023-04-19T04:11:25;37.80;;;35.43;;
9254;SDS011;4663;49.120;9.730;2023-04-19T04:13:51;36.73;;;34.23;;
9254;SDS011;4663;49.120;9.730;2023-04-19T04:16:16;36.47;;;33.97;;
9254;SDS011;4663;49.120;9.730;2023-04-19T04:18:42;40.93;;;38.20;;
9254;SDS011;4663;49.120;9.730;2023-04-19T04:21:07;36.37;;;33.87;;
9254;SDS011;4663;49.120;9.730;2023-04-19T04:23:32;34.87;;;32.57;;
9254;SDS011;4663;49.120;9.730;2023-04-19T04:25:58;34.30;;;31.97;;
9254;SDS011;4663;49.120;9.730;2023-04-19T04:28:28;35.20;;;32.77;;
9254;SDS011;4663;49.120;9.730;2023-04-19T04:30:55;34.77;;;32.43;;
9254;SDS011;4663;49.120;9.730;2023-04-19T04:33:24;36.70;;;34.20;;
9254;SDS011;4663;49.120;9.730;2023-04-19T04:35:50;35.33;;;32.87;;
9254;SDS011;4663;49.120;9.730;2023-04-19T04:38:17;35.13;;;32.67;;
9254;SDS011;4663;49.120;9.730;2023-04-19T04:40:43;33.57;;;31.40;;
9254;SDS011;4663;49.120;9.730;2023-04-19T04:43:12;32.50;;;30.30;;
9254;SDS011;4663;49.120;9.730;2023-04-19T04:45:38;30.27;;;28.23;;
9254;SDS011;4663;49.120;9.730;2023-04-19T04:48:03;29.30;;;27.20;;
9254;SDS011;4663;49.120;9.730;2023-04-19T04:50:29;29.20;;;27.20;;
9254;SDS011;4663;49.120;9.730;2023-04-19T04:52:55;27.97;;;25.90;;
9254;SDS011;4663;49.120;9.730;2023-04-19T04:55:20;26.40;;;24.40;;
9254;SDS011;4663;49.120;9.730;2023-04-19T04:57:45;25.63;;;23.70;;
9254;SDS011;4663;49.120;9.730;2023-04-19T05:00:11;26.70;;;24.83;;
9254;SDS011;4663;49.120;9.730;2023-04-19T05:02:37;25.40;;;23.30;;
9254;SDS011;4663;49.120;9.730;2023-04-19T05:05:02;26.17;;;24.17;;
9254;SDS011;4663;49.120;9.730;2023-04-19T05:07:27;25.50;;;23.53;;
9254;SDS011;4663;49.120;9.730;2023-04-19T05:09:53;26.63;;;24.53;;
9254;SDS011;4663;49.120;9.730;2023-04-19T05:12:18;26.40;;;24.43;;
9254;SDS011;4663;49.120;9.730;2023-04-19T05:14:44;24.73;;;22.87;;
9254;SDS011;4663;49.120;9.730;2023-04-19T05:17:09;25.03;;;23.23;;
9254;SDS011;4663;49.120;9.730;2023-04-19T05:19:34;26.37;;;24.33;;
9254;SDS011;4663;49.120;9.730;2023-04-19T05:22:00;27.70;;;25.60;;
9254;SDS011;4663;49.120;9.730;2023-04-19T05:24:25;28.67;;;26.50;;
9254;SDS011;4663;49.120;9.730;2023-04-19T05:26:50;26.13;;;24.07;;
9254;SDS011;4663;49.120;9.730;2023-04-19T05:29:16;26.70;;;24.50;;
9254;SDS011;4663;49.120;9.730;2023-04-19T05:31:41;27.23;;;25.00;;
9254;SDS011;4663;49.120;9.730;2023-04-19T05:34:06;30.23;;;28.00;;
9254;SDS011;4663;49.120;9.730;2023-04-19T05:36:32;30.23;;;27.97;;
9254;SDS011;4663;49.120;9.730;2023-04-19T05:38:57;32.17;;;30.03;;
9254;SDS011;4663;49.120;9.730;2023-04-19T05:41:22;34.03;;;31.77;;
9254;SDS011;4663;49.120;9.730;2023-04-19T05:43:48;38.83;;;36.30;;
9254;SDS011;4663;49.120;9.730;2023-04-19T05:46:13;41.60;;;38.83;;
9254;SDS011;4663;49.120;9.730;2023-04-19T05:48:38;38.27;;;35.67;;
9254;SDS011;4663;49.120;9.730;2023-04-19T05:51:04;38.57;;;35.73;;
9254;SDS011;4663;49.120;9.730;2023-04-19T05:53:29;36.47;;;33.77;;
9254;SDS011;4663;49.120;9.730;2023-04-19T05:55:55;36.50;;;34.07;;
9254;SDS011;4663;49.120;9.730;2023-04-19T05:58:20;40.37;;;37.50;;
9254;SDS011;4663;49.120;9.730;2023-04-19T06:00:47;41.27;;;38.73;;
9254;SDS011;4663;49.120;9.730;2023-04-19T06:03:13;45.67;;;42.67;;
9254;SDS011;4663;49.120;9.730;2023-04-19T06:05:38;49.07;;;45.90;;
9254;SDS011;4663;49.120;9.730;2023-04-19T06:08:04;54.50;;;51.17;;
9254;SDS011;4663;49.120;9.730;2023-04-19T06:10:31;55.57;;;52.20;;
9254;SDS011;4663;49.120;9.730;2023-04-19T06:12:56;93.03;;;87.83;;
9254;SDS011;4663;49.120;9.730;2023-04-19T06:15:22;57.87;;;54.30;;
9254;SDS011;4663;49.120;9.730;2023-04-19T06:17:49;55.17;;;51.70;;
9254;SDS011;4663;49.120;9.730;2023-04-19T06:20:15;57.57;;;54.20;;
9254;SDS011;4663;49.120;9.730;2023-04-19T06:22:41;53.17;;;49.90;;
9254;SDS011;4663;49.120;9.730;2023-04-19T06:25:09;55.77;;;52.50;;
9254;SDS011;4663;49.120;9.730;2023-04-19T06:27:34;52.17;;;49.03;;
9254;SDS011;4663;49.120;9.730;2023-04-19T06:29:59;54.50;;;51.17;;
9254;SDS011;4663;49.120;9.730;2023-04-19T06:32:25;45.20;;;42.37;;
9254;SDS011;4663;49.120;9.730;2023-04-19T06:34:50;44.53;;;41.70;;
9254;SDS011;4663;49.120;9.730;2023-04-19T06:37:16;47.43;;;44.43;;
9254;SDS011;4663;49.120;9.730;2023-04-19T06:39:41;47.43;;;44.57;;
9254;SDS011;4663;49.120;9.730;2023-04-19T06:42:07;44.10;;;41.37;;
9254;SDS011;4663;49.120;9.730;2023-04-19T06:44:32;41.67;;;38.80;;
9254;SDS011;4663;49.120;9.730;2023-04-19T06:46:57;43.27;;;40.57;;
9254;SDS011;4663;49.120;9.730;2023-04-19T06:49:23;37.70;;;35.33;;
9254;SDS011;4663;49.120;9.730;2023-04-19T06:51:48;35.03;;;32.57;;
9254;SDS011;4663;49.120;9.730;2023-04-19T06:54:14;44.47;;;41.63;;
9254;SDS011;4663;49.120;9.730;2023-04-19T06:56:43;54.93;;;51.70;;
9254;SDS011;4663;49.120;9.730;2023-04-19T06:59:10;60.27;;;56.33;;
9254;SDS011;4663;49.120;9.730;2023-04-19T07:01:36;63.37;;;59.60;;
9254;SDS011;4663;49.120;9.730;2023-04-19T07:04:02;63.20;;;59.33;;
9254;SDS011;4663;49.120;9.730;2023-04-19T07:06:27;43.50;;;40.47;;
9254;SDS011;4663;49.120;9.730;2023-04-19T07:08:53;41.77;;;38.90;;
9254;SDS011;4663;49.120;9.730;2023-04-19T07:11:19;48.70;;;45.60;;
9254;SDS011;4663;49.120;9.730;2023-04-19T07:13:44;45.30;;;42.27;;
9254;SDS011;4663;49.120;9.730;2023-04-19T07:16:10;50.30;;;47.07;;
9254;SDS011;4663;49.120;9.730;2023-04-19T07:18:35;46.60;;;43.43;;
9254;SDS011;4663;49.120;9.730;2023-04-19T07:21:00;46.20;;;42.90;;
9254;SDS011;4663;49.120;9.730;2023-04-19T07:23:26;57.27;;;53.53;;
9254;SDS011;4663;49.120;9.730;2023-04-19T07:25:51;62.60;;;58.57;;
9254;SDS011;4663;49.120;9.730;2023-04-19T07:28:17;64.27;;;60.43;;
9254;SDS011;4663;49.120;9.730;2023-04-19T07:30:42;58.20;;;54.63;;
9254;SDS011;4663;49.120;9.730;2023-04-19T07:33:10;53.40;;;49.93;;
9254;SDS011;4663;49.120;9.730;2023-04-19T07:35:37;45.17;;;42.27;;
9254;SDS011;4663;49.120;9.730;2023-04-19T07:38:03;39.57;;;36.67;;
9254;SDS011;4663;49.120;9.730;2023-04-19T07:40:28;33.50;;;30.97;;
9254;SDS011;4663;49.120;9.730;2023-04-19T07:42:54;30.47;;;27.97;;
9254;SDS011;4663;49.120;9.730;2023-04-19T07:45:20;28.33;;;26.07;;
9254;SDS011;4663;49.120;9.730;2023-04-19T07:47:45;29.17;;;26.87;;
9254;SDS011;4663;49.120;9.730;2023-04-19T07:50:10;26.10;;;23.97;;
9254;SDS011;4663;49.120;9.730;2023-04-19T07:52:36;25.83;;;23.63;;
9254;SDS011;4663;49.120;9.730;2023-04-19T07:55:02;24.97;;;23.10;;
9254;SDS011;4663;49.120;9.730;2023-04-19T07:57:27;25.77;;;23.73;;
9254;SDS011;4663;49.120;9.730;2023-04-19T07:59:52;25.80;;;23.80;;
9254;SDS011;4663;49.120;9.730;2023-04-19T08:02:21;25.13;;;23.13;;
9254;SDS011;4663;49.120;9.730;2023-04-19T08:04:47;24.33;;;22.43;;
9254;SDS011;4663;49.120;9.730;2023-04-19T08:07:13;27.20;;;25.10;;
9254;SDS011;4663;49.120;9.730;2023-04-19T08:09:39;26.97;;;24.97;;
9254;SDS011;4663;49.120;9.730;2023-04-19T08:12:04;27.03;;;24.93;;
9254;SDS011;4663;49.120;9.730;2023-04-19T08:14:30;29.03;;;26.97;;
9254;SDS011;4663;49.120;9.730;2023-04-19T08:16:55;32.30;;;30.00;;
9254;SDS011;4663;49.120;9.730;2023-04-19T08:19:21;36.07;;;33.47;;
9254;SDS011;4663;49.120;9.730;2023-04-19T08:21:46;37.92;;;35.47;;
9254;SDS011;4663;49.120;9.730;2023-04-19T08:24:12;40.15;;;37.50;;
9254;SDS011;4663;49.120;9.730;2023-04-19T08:26:37;41.58;;;38.78;;
9254;SDS011;4663;49.120;9.730;2023-04-19T08:29:03;41.43;;;38.80;;
9254;SDS011;4663;49.120;9.730;2023-04-19T08:31:28;41.80;;;39.03;;
9254;SDS011;4663;49.120;9.730;2023-04-19T08:33:54;40.57;;;38.00;;
9254;SDS011;4663;49.120;9.730;2023-04-19T08:36:19;39.67;;;37.13;;
9254;SDS011;4663;49.120;9.730;2023-04-19T08:38:44;42.53;;;39.93;;
9254;SDS011;4663;49.120;9.730;2023-04-19T08:41:10;41.67;;;39.00;;
9254;SDS011;4663;49.120;9.730;2023-04-19T08:43:35;40.15;;;37.28;;
9254;SDS011;4663;49.120;9.730;2023-04-19T08:46:01;38.37;;;35.63;;
9254;SDS011;4663;49.120;9.730;2023-04-19T08:48:28;35.40;;;32.97;;
9254;SDS011;4663;49.120;9.730;2023-04-19T08:50:55;36.47;;;34.07;;
9254;SDS011;4663;49.120;9.730;2023-04-19T08:53:21;52.97;;;49.70;;
9254;SDS011;4663;49.120;9.730;2023-04-19T08:55:47;39.42;;;36.92;;
9254;SDS011;4663;49.120;9.730;2023-04-19T08:58:13;41.27;;;38.57;;
9254;SDS011;4663;49.120;9.730;2023-04-19T09:00:39;41.23;;;38.40;;
9254;SDS011;4663;49.120;9.730;2023-04-19T09:03:05;43.77;;;40.83;;
9254;SDS011;4663;49.120;9.730;2023-04-19T09:05:32;41.78;;;39.20;;
9254;SDS011;4663;49.120;9.730;2023-04-19T09:08:19;40.75;;;38.10;;
9254;SDS011;4663;49.120;9.730;2023-04-19T09:10:55;41.80;;;39.08;;
9254;SDS011;4663;49.120;9.730;2023-04-19T09:13:26;39.28;;;36.72;;
9254;SDS011;4663;49.120;9.730;2023-04-19T09:15:53;37.45;;;34.92;;
9254;SDS011;4663;49.120;9.730;2023-04-19T09:18:20;38.88;;;36.13;;
9254;SDS011;4663;49.120;9.730;2023-04-19T09:20:51;37.72;;;35.08;;
9254;SDS011;4663;49.120;9.730;2023-04-19T09:23:23;38.83;;;36.15;;
9254;SDS011;4663;49.120;9.730;2023-04-19T09:25:54;42.08;;;39.42;;
9254;SDS011;4663;49.120;9.730;2023-04-19T09:28:22;46.80;;;43.78;;
9254;SDS011;4663;49.120;9.730;2023-04-19T09:30:48;45.42;;;42.42;;
9254;SDS011;4663;49.120;9.730;2023-04-19T09:33:47;44.30;;;41.55;;
9254;SDS011;4663;49.120;9.730;2023-04-19T09:36:08;44.37;;;41.47;;
9254;SDS011;4663;49.120;9.730;2023-04-19T09:38:51;44.40;;;41.47;;
9254;SDS011;4663;49.120;9.730;2023-04-19T09:41:17;46.92;;;44.08;;
9254;SDS011;4663;49.120;9.730;2023-04-19T09:43:43;44.50;;;41.85;;
9254;SDS011;4663;49.120;9.730;2023-04-19T09:46:08;43.22;;;40.58;;
9254;SDS011;4663;49.120;9.730;2023-04-19T09:51:44;38.85;;;36.25;;
9254;SDS011;4663;49.120;9.730;2023-04-19T09:54:14;36.33;;;34.00;;
9254;SDS011;4663;49.120;9.730;2023-04-19T09:56:41;32.17;;;29.83;;
9254;SDS011;4663;49.120;9.730;2023-04-19T09:59:07;30.47;;;28.27;;
9254;SDS011;4663;49.120;9.730;2023-04-19T10:01:36;29.57;;;27.17;;
9254;SDS011;4663;49.120;9.730;2023-04-19T10:04:13;28.87;;;26.57;;
9254;SDS011;4663;49.120;9.730;2023-04-19T10:06:46;31.13;;;28.63;;
9254;SDS011;4663;49.120;9.730;2023-04-19T10:09:13;29.70;;;27.40;;
9254;SDS011;4663;49.120;9.730;2023-04-19T10:11:39;28.87;;;26.57;;
9254;SDS011;4663;49.120;9.730;2023-04-19T10:14:08;30.50;;;27.63;;
9254;SDS011;4663;49.120;9.730;2023-04-19T10:16:35;29.30;;;27.00;;
9254;SDS011;4663;49.120;9.730;2023-04-19T10:19:02;27.63;;;25.43;;
9254;SDS011;4663;49.120;9.730;2023-04-19T10:21:29;28.50;;;26.30;;
9254;SDS011;4663;49.120;9.730;2023-04-19T10:23:56;29.53;;;27.27;;
9254;SDS011;4663;49.120;9.730;2023-04-19T10:26:22;28.47;;;26.37;;
9254;SDS011;4663;49.120;9.730;2023-04-19T10:28:48;28.03;;;25.73;;
9254;SDS011;4663;49.120;9.730;2023-04-19T10:31:14;29.47;;;27.03;;
9254;SDS011;4663;49.120;9.730;2023-04-19T10:33:45;27.97;;;25.67;;
9254;SDS011;4663;49.120;9.730;2023-04-19T10:36:13;31.53;;;28.40;;
9254;SDS011;4663;49.120;9.730;2023-04-19T10:38:48;30.00;;;27.50;;
9254;SDS011;4663;49.120;9.730;2023-04-19T10:41:20;31.43;;;28.83;;
9254;SDS011;4663;49.120;9.730;2023-04-19T10:51:23;33.40;;;31.00;;
9254;SDS011;4663;49.120;9.730;2023-04-19T10:54:00;30.93;;;28.63;;
9254;SDS011;4663;49.120;9.730;2023-04-19T11:01:36;35.47;;;32.97;;
9254;SDS011;4663;49.120;9.730;2023-04-19T11:06:57;37.53;;;35.00;;
9254;SDS011;4663;49.120;9.730;2023-04-19T11:09:26;58.47;;;55.10;;
9254;SDS011;4663;49.120;9.730;2023-04-19T11:11:56;45.77;;;42.73;;
9254;SDS011;4663;49.120;9.730;2023-04-19T11:14:33;47.00;;;43.37;;
9254;SDS011;4663;49.120;9.730;2023-04-19T11:17:01;46.67;;;43.60;;
9254;SDS011;4663;49.120;9.730;2023-04-19T11:19:29;46.10;;;42.77;;
9254;SDS011;4663;49.120;9.730;2023-04-19T11:21:56;42.43;;;39.73;;
9254;SDS011;4663;49.120;9.730;2023-04-19T11:24:23;44.30;;;41.60;;
9254;SDS011;4663;49.120;9.730;2023-04-19T11:26:49;37.63;;;35.13;;
9254;SDS011;4663;49.120;9.730;2023-04-19T11:29:14;33.67;;;31.37;;
9254;SDS011;4663;49.120;9.730;2023-04-19T11:31:42;33.40;;;31.20;;
9254;SDS011;4663;49.120;9.730;2023-04-19T11:34:10;35.27;;;32.73;;
9254;SDS011;4663;49.120;9.730;2023-04-19T11:36:45;36.77;;;34.40;;
9254;SDS011;4663;49.120;9.730;2023-04-19T11:39:11;39.40;;;37.03;;
9254;SDS011;4663;49.120;9.730;2023-04-19T11:41:38;44.20;;;41.57;;
9254;SDS011;4663;49.120;9.730;2023-04-19T11:44:03;36.87;;;34.47;;
9254;SDS011;4663;49.120;9.730;2023-04-19T11:46:36;38.77;;;36.37;;
9254;SDS011;4663;49.120;9.730;2023-04-19T11:49:01;34.67;;;32.43;;
9254;SDS011;4663;49.120;9.730;2023-04-19T11:51:27;31.80;;;29.77;;
9254;SDS011;4663;49.120;9.730;2023-04-19T11:53:52;28.57;;;26.77;;
9254;SDS011;4663;49.120;9.730;2023-04-19T11:56:17;25.87;;;24.17;;
9254;SDS011;4663;49.120;9.730;2023-04-19T11:58:43;27.37;;;25.27;;
9254;SDS011;4663;49.120;9.730;2023-04-19T12:01:15;26.47;;;24.67;;
9254;SDS011;4663;49.120;9.730;2023-04-19T12:03:50;23.47;;;21.97;;
9254;SDS011;4663;49.120;9.730;2023-04-19T12:06:24;21.37;;;19.67;;
9254;SDS011;4663;49.120;9.730;2023-04-19T12:08:55;21.10;;;19.63;;
9254;SDS011;4663;49.120;9.730;2023-04-19T12:11:21;29.93;;;28.00;;
9254;SDS011;4663;49.120;9.730;2023-04-19T12:14:06;19.80;;;18.30;;
9254;SDS011;4663;49.120;9.730;2023-04-19T12:16:32;21.03;;;19.43;;
9254;SDS011;4663;49.120;9.730;2023-04-19T12:18:58;21.53;;;20.20;;
9254;SDS011;4663;49.120;9.730;2023-04-19T12:21:38;22.70;;;21.07;;
9254;SDS011;4663;49.120;9.730;2023-04-19T12:24:07;27.90;;;26.13;;
9254;SDS011;4663;49.120;9.730;2023-04-19T12:26:32;33.70;;;31.70;;
9254;SDS011;4663;49.120;9.730;2023-04-19T12:28:58;38.60;;;36.37;;
9254;SDS011;4663;49.120;9.730;2023-04-19T12:31:25;44.70;;;42.13;;
9254;SDS011;4663;49.120;9.730;2023-04-19T12:33:51;39.30;;;37.03;;
9254;SDS011;4663;49.120;9.730;2023-04-19T12:36:17;34.45;;;32.35;;
9254;SDS011;4663;49.120;9.730;2023-04-19T12:38:42;32.03;;;30.10;;
9254;SDS011;4663;49.120;9.730;2023-04-19T12:41:08;29.05;;;27.13;;
9254;SDS011;4663;49.120;9.730;2023-04-19T12:43:33;26.30;;;24.67;;
9254;SDS011;4663;49.120;9.730;2023-04-19T12:45:59;27.25;;;25.63;;
9254;SDS011;4663;49.120;9.730;2023-04-19T12:48:24;23.77;;;22.35;;
9254;SDS011;4663;49.120;9.730;2023-04-19T12:50:50;19.90;;;18.60;;
9254;SDS011;4663;49.120;9.730;2023-04-19T12:53:16;19.35;;;18.05;;
9254;SDS011;4663;49.120;9.730;2023-04-19T12:55:41;20.42;;;19.05;;
9254;SDS011;4663;49.120;9.730;2023-04-19T12:58:11;20.45;;;19.02;;
9254;SDS011;4663;49.120;9.730;2023-04-19T13:00:44;18.70;;;17.50;;
9254;SDS011;4663;49.120;9.730;2023-04-19T13:03:10;18.83;;;17.52;;
9254;SDS011;4663;49.120;9.730;2023-04-19T13:05:38;22.05;;;20.75;;
9254;SDS011;4663;49.120;9.730;2023-04-19T13:08:04;21.63;;;20.33;;
9254;SDS011;4663;49.120;9.730;2023-04-19T13:10:30;26.73;;;25.20;;
9254;SDS011;4663;49.120;9.730;2023-04-19T13:12:58;29.60;;;27.95;;
9254;SDS011;4663;49.120;9.730;2023-04-19T13:15:24;25.08;;;23.58;;
9254;SDS011;4663;49.120;9.730;2023-04-19T13:17:50;24.13;;;22.63;;
9254;SDS011;4663;49.120;9.730;2023-04-19T13:20:17;24.50;;;23.13;;
9254;SDS011;4663;49.120;9.730;2023-04-19T13:22:43;24.80;;;23.40;;
9254;SDS011;4663;49.120;9.730;2023-04-19T13:25:09;23.23;;;21.90;;
9254;SDS011;4663;49.120;9.730;2023-04-19T13:27:35;22.38;;;20.98;;
9254;SDS011;4663;49.120;9.730;2023-04-19T13:30:00;18.45;;;17.35;;
9254;SDS011;4663;49.120;9.730;2023-04-19T13:32:25;20.38;;;19.08;;
9254;SDS011;4663;49.120;9.730;2023-04-19T13:34:51;23.52;;;22.13;;
9254;SDS011;4663;49.120;9.730;2023-04-19T13:37:16;21.15;;;19.80;;
9254;SDS011;4663;49.120;9.730;2023-04-19T13:39:42;23.73;;;22.33;;
9254;SDS011;4663;49.120;9.730;2023-04-19T13:42:07;24.40;;;22.95;;
9254;SDS011;4663;49.120;9.730;2023-04-19T13:44:33;21.05;;;19.85;;
9254;SDS011;4663;49.120;9.730;2023-04-19T13:46:59;18.90;;;17.52;;
9254;SDS011;4663;49.120;9.730;2023-04-19T13:49:25;18.52;;;17.40;;
9254;SDS011;4663;49.120;9.730;2023-04-19T13:51:51;18.00;;;16.90;;
9254;SDS011;4663;49.120;9.730;2023-04-19T13:54:16;17.73;;;16.63;;
9254;SDS011;4663;49.120;9.730;2023-04-19T13:56:42;16.23;;;15.18;;
9254;SDS011;4663;49.120;9.730;2023-04-19T13:59:08;16.48;;;15.45;;
9254;SDS011;4663;49.120;9.730;2023-04-19T14:01:34;16.05;;;15.15;;
9254;SDS011;4663;49.120;9.730;2023-04-19T14:04:00;16.25;;;15.23;;
9254;SDS011;4663;49.120;9.730;2023-04-19T14:06:26;16.45;;;15.38;;
9254;SDS011;4663;49.120;9.730;2023-04-19T14:08:51;17.25;;;16.15;;
9254;SDS011;4663;49.120;9.730;2023-04-19T14:11:17;15.32;;;14.43;;
9254;SDS011;4663;49.120;9.730;2023-04-19T14:13:43;16.73;;;15.65;;
9254;SDS011;4663;49.120;9.730;2023-04-19T14:16:09;15.98;;;14.98;;
9254;SDS011;4663;49.120;9.730;2023-04-19T14:18:34;17.08;;;16.05;;
9254;SDS011;4663;49.120;9.730;2023-04-19T14:21:00;16.50;;;15.40;;
9254;SDS011;4663;49.120;9.730;2023-04-19T14:23:26;15.80;;;14.75;;
9254;SDS011;4663;49.120;9.730;2023-04-19T14:25:51;16.30;;;15.30;;
9254;SDS011;4663;49.120;9.730;2023-04-19T14:28:17;16.58;;;15.55;;
9254;SDS011;4663;49.120;9.730;2023-04-19T14:30:43;16.13;;;15.18;;
9254;SDS011;4663;49.120;9.730;2023-04-19T14:33:08;15.90;;;14.63;;
9254;SDS011;4663;49.120;9.730;2023-04-19T14:35:34;17.92;;;16.73;;
9254;SDS011;4663;49.120;9.730;2023-04-19T14:37:59;16.15;;;15.15;;
9254;SDS011;4663;49.120;9.730;2023-04-19T14:40:25;16.23;;;15.05;;
9254;SDS011;4663;49.120;9.730;2023-04-19T14:42:51;16.83;;;15.43;;
9254;SDS011;4663;49.120;9.730;2023-04-19T14:45:17;16.58;;;15.38;;
9254;SDS011;4663;49.120;9.730;2023-04-19T14:47:43;15.88;;;14.93;;
9254;SDS011;4663;49.120;9.730;2023-04-19T14:50:08;16.00;;;15.10;;
9254;SDS011;4663;49.120;9.730;2023-04-19T14:52:34;15.27;;;14.38;;
9254;SDS011;4663;49.120;9.730;2023-04-19T14:54:59;14.25;;;13.35;;
9254;SDS011;4663;49.120;9.730;2023-04-19T14:57:27;14.48;;;13.68;;
9254;SDS011;4663;49.120;9.730;2023-04-19T14:59:53;14.77;;;13.88;;
9254;SDS011;4663;49.120;9.730;2023-04-19T15:02:22;15.25;;;14.18;;